createdAt,value
2023-08-01T00:01:02.208Z,16.93
2023-08-01T00:03:29.186Z,16.82
2023-08-01T00:05:56.231Z,16.74
2023-08-01T00:08:23.019Z,16.78
2023-08-01T00:10:49.934Z,16.84
2023-08-01T00:13:16.659Z,16.73
2023-08-01T00:15:50.679Z,16.69
2023-08-01T00:18:27.964Z,16.67
2023-08-01T00:20:54.959Z,16.77
2023-08-01T00:23:21.781Z,16.75
2023-08-01T00:25:52.591Z,16.72
2023-08-01T00:28:19.657Z,16.75
2023-08-01T00:30:46.660Z,16.73
2023-08-01T00:33:14.201Z,16.67
2023-08-01T00:35:40.914Z,16.60
2023-08-01T00:38:07.953Z,16.62
2023-08-01T00:40:35.493Z,16.66
2023-08-01T00:43:02.165Z,16.69
2023-08-01T00:45:30.101Z,16.63
2023-08-01T00:47:57.734Z,16.67
2023-08-01T00:50:25.719Z,16.57
2023-08-01T00:52:53.813Z,16.50
2023-08-01T00:55:22.339Z,16.45
2023-08-01T00:57:49.493Z,16.60
2023-08-01T01:00:16.265Z,16.58
2023-08-01T01:02:42.990Z,16.43
2023-08-01T01:05:09.956Z,16.45
2023-08-01T01:07:38.159Z,16.41
2023-08-01T01:10:05.072Z,16.40
2023-08-01T01:12:31.810Z,16.38
2023-08-01T01:14:58.484Z,16.45
2023-08-01T01:17:25.190Z,16.29
2023-08-01T01:19:51.990Z,16.32
2023-08-01T01:22:20.015Z,16.21
2023-08-01T01:24:47.909Z,16.21
2023-08-01T01:27:16.650Z,16.29
2023-08-01T01:29:44.712Z,16.33
2023-08-01T01:32:12.163Z,16.29
2023-08-01T01:34:38.911Z,16.34
2023-08-01T01:37:05.786Z,16.41
2023-08-01T01:39:32.481Z,16.41
2023-08-01T01:41:59.224Z,16.41
2023-08-01T01:44:25.904Z,16.45
2023-08-01T01:46:52.681Z,16.53
2023-08-01T01:49:19.484Z,16.48
2023-08-01T01:51:46.180Z,16.52
2023-08-01T01:54:12.870Z,16.71
2023-08-01T01:56:39.937Z,16.60
2023-08-01T01:59:06.855Z,16.52
2023-08-01T02:01:33.522Z,16.54
2023-08-01T02:04:00.244Z,16.62
2023-08-01T02:06:26.919Z,16.73
2023-08-01T02:08:53.697Z,16.72
2023-08-01T02:11:20.435Z,16.78
2023-08-01T02:13:47.123Z,16.69
2023-08-01T02:16:13.862Z,16.61
2023-08-01T02:18:40.629Z,16.64
2023-08-01T02:21:07.458Z,16.64
2023-08-01T02:23:37.359Z,16.62
2023-08-01T02:26:04.510Z,16.60
2023-08-01T02:28:31.329Z,16.59
2023-08-01T02:30:58.039Z,16.63
2023-08-01T02:33:24.839Z,16.59
2023-08-01T02:35:51.604Z,16.71
2023-08-01T02:38:18.382Z,16.59
2023-08-01T02:40:45.075Z,16.68
2023-08-01T02:43:11.726Z,16.62
2023-08-01T02:45:38.451Z,16.65
2023-08-01T02:48:05.423Z,16.53
2023-08-01T02:50:32.141Z,16.40
2023-08-01T02:52:58.837Z,16.36
2023-08-01T02:55:25.521Z,16.39
2023-08-01T02:57:52.246Z,16.26
2023-08-01T03:00:19.042Z,16.28
2023-08-01T03:02:47.061Z,16.13
2023-08-01T03:05:13.938Z,16.14
2023-08-01T03:07:41.001Z,16.08
2023-08-01T03:10:08.051Z,16.19
2023-08-01T03:12:36.109Z,16.22
2023-08-01T03:15:02.787Z,16.28
2023-08-01T03:17:29.478Z,16.30
2023-08-01T03:19:56.218Z,16.35
2023-08-01T03:22:23.180Z,16.21
2023-08-01T03:24:49.922Z,16.22
2023-08-01T03:27:16.605Z,16.20
2023-08-01T03:29:43.322Z,16.19
2023-08-01T03:32:10.022Z,16.23
2023-08-01T03:34:36.939Z,16.19
2023-08-01T03:37:04.916Z,16.22
2023-08-01T03:39:31.629Z,16.19
2023-08-01T03:41:58.347Z,16.31
2023-08-01T03:44:25.149Z,16.21
2023-08-01T03:46:51.836Z,16.20
2023-08-01T03:49:19.439Z,16.18
2023-08-01T03:51:46.258Z,16.17
2023-08-01T03:54:14.316Z,16.38
2023-08-01T03:56:44.491Z,16.26
2023-08-01T03:59:17.446Z,16.47
2023-08-01T04:01:44.224Z,16.30
2023-08-01T04:04:11.193Z,16.34
2023-08-01T04:06:38.805Z,16.35
2023-08-01T04:09:07.697Z,16.33
2023-08-01T04:11:34.617Z,16.28
2023-08-01T04:14:01.376Z,16.39
2023-08-01T04:16:28.076Z,16.31
2023-08-01T04:18:54.779Z,16.28
2023-08-01T04:21:21.481Z,16.24
2023-08-01T04:23:48.283Z,16.28
2023-08-01T04:26:14.977Z,16.26
2023-08-01T04:28:41.783Z,16.26
2023-08-01T04:31:08.527Z,16.22
2023-08-01T04:33:35.294Z,16.23
2023-08-01T04:36:02.936Z,16.23
2023-08-01T04:38:29.806Z,16.22
2023-08-01T04:40:56.487Z,16.33
2023-08-01T04:43:23.290Z,16.22
2023-08-01T04:46:01.220Z,16.31
2023-08-01T04:48:56.149Z,16.35
2023-08-01T04:51:22.878Z,16.42
2023-08-01T04:53:49.685Z,16.30
2023-08-01T04:56:16.438Z,16.37
2023-08-01T04:58:43.230Z,16.41
2023-08-01T05:01:10.160Z,16.33
2023-08-01T05:03:37.266Z,16.29
2023-08-01T05:06:06.464Z,16.52
2023-08-01T05:08:34.660Z,16.45
2023-08-01T05:11:01.341Z,16.36
2023-08-01T05:13:28.089Z,16.25
2023-08-01T05:15:54.787Z,16.06
2023-08-01T05:18:21.585Z,15.93
2023-08-01T05:20:48.259Z,15.93
2023-08-01T05:23:14.931Z,15.85
2023-08-01T05:25:41.644Z,15.81
2023-08-01T05:28:08.621Z,15.75
2023-08-01T05:30:35.616Z,15.80
2023-08-01T05:33:02.420Z,15.81
2023-08-01T05:35:29.171Z,15.85
2023-08-01T05:37:55.860Z,15.86
2023-08-01T05:40:22.593Z,15.94
2023-08-01T05:42:49.588Z,15.93
2023-08-01T05:45:16.392Z,15.92
2023-08-01T05:47:43.187Z,15.94
2023-08-01T05:50:10.445Z,15.97
2023-08-01T05:52:37.256Z,15.96
2023-08-01T05:55:04.253Z,15.97
2023-08-01T05:57:31.452Z,15.92
2023-08-01T05:59:58.153Z,15.93
2023-08-01T06:02:24.908Z,15.96
2023-08-01T06:04:51.762Z,16.02
2023-08-01T06:07:24.009Z,16.13
2023-08-01T06:09:52.757Z,16.25
2023-08-01T06:12:19.963Z,16.11
2023-08-01T06:14:47.504Z,15.88
2023-08-01T06:17:14.278Z,15.80
2023-08-01T06:19:41.144Z,15.74
2023-08-01T06:22:08.064Z,15.69
2023-08-01T06:24:34.803Z,15.67
2023-08-01T06:27:01.548Z,15.73
2023-08-01T06:29:28.339Z,15.73
2023-08-01T06:31:55.124Z,15.71
2023-08-01T06:34:21.865Z,15.74
2023-08-01T06:36:49.173Z,15.84
2023-08-01T06:39:16.042Z,15.89
2023-08-01T06:41:42.813Z,15.96
2023-08-01T06:44:09.528Z,16.04
2023-08-01T06:46:36.376Z,16.04
2023-08-01T06:49:03.436Z,16.14
2023-08-01T06:51:30.184Z,16.08
2023-08-01T06:53:56.878Z,16.26
2023-08-01T06:56:23.635Z,16.16
2023-08-01T06:58:50.935Z,16.10
2023-08-01T07:01:17.802Z,16.11
2023-08-01T07:03:44.701Z,16.09
2023-08-01T07:06:11.981Z,16.14
2023-08-01T07:08:38.713Z,16.14
2023-08-01T07:11:05.570Z,16.19
2023-08-01T07:13:32.214Z,16.28
2023-08-01T07:15:59.314Z,16.24
2023-08-01T07:18:26.070Z,16.44
2023-08-01T07:21:05.833Z,16.47
2023-08-01T07:23:34.829Z,16.61
2023-08-01T07:26:01.548Z,16.73
2023-08-01T07:28:28.323Z,16.93
2023-08-01T07:31:06.383Z,16.95
2023-08-01T07:33:34.082Z,16.85
2023-08-01T07:36:01.667Z,16.85
2023-08-01T07:38:28.512Z,16.79
2023-08-01T07:40:56.284Z,16.78
2023-08-01T07:43:23.098Z,16.87
2023-08-01T07:45:51.694Z,17.21
2023-08-01T07:48:18.642Z,17.30
2023-08-01T07:50:45.341Z,17.61
2023-08-01T07:53:12.034Z,17.89
2023-08-01T07:55:38.729Z,17.88
2023-08-01T07:58:06.139Z,17.70
2023-08-01T08:00:32.886Z,17.76
2023-08-01T08:02:59.546Z,17.80
2023-08-01T08:05:26.482Z,17.86
2023-08-01T08:07:53.297Z,17.89
2023-08-01T08:10:20.282Z,17.91
2023-08-01T08:12:47.069Z,18.37
2023-08-01T08:15:14.935Z,18.51
2023-08-01T08:17:41.710Z,18.45
2023-08-01T08:20:08.951Z,18.36
2023-08-01T08:22:35.600Z,18.18
2023-08-01T08:25:02.565Z,18.03
2023-08-01T08:27:29.351Z,18.41
2023-08-01T08:29:57.040Z,19.15
2023-08-01T08:32:23.758Z,19.35
2023-08-01T08:34:50.618Z,19.49
2023-08-01T08:37:17.351Z,19.64
2023-08-01T08:39:44.769Z,19.77
2023-08-01T08:42:11.992Z,19.44
2023-08-01T08:44:44.899Z,19.45
2023-08-01T08:47:13.803Z,19.87
2023-08-01T08:49:41.647Z,20.39
2023-08-01T08:52:10.346Z,20.84
2023-08-01T08:54:40.909Z,21.11
2023-08-01T08:57:08.035Z,19.88
2023-08-01T08:59:35.820Z,19.23
2023-08-01T09:02:06.758Z,19.77
2023-08-01T09:04:33.602Z,20.50
2023-08-01T09:07:04.789Z,20.67
2023-08-01T09:09:32.550Z,20.76
2023-08-01T09:12:00.145Z,20.98
2023-08-01T09:14:26.949Z,20.82
2023-08-01T09:16:53.977Z,20.80
2023-08-01T09:19:22.926Z,20.46
2023-08-01T09:21:50.061Z,20.08
2023-08-01T09:24:19.061Z,19.55
2023-08-01T09:26:48.968Z,19.00
2023-08-01T09:29:20.786Z,19.07
2023-08-01T09:31:47.942Z,19.08
2023-08-01T09:34:26.050Z,18.65
2023-08-01T09:36:59.772Z,18.40
2023-08-01T09:39:26.622Z,18.33
2023-08-01T09:42:01.045Z,18.32
2023-08-01T09:44:29.605Z,18.20
2023-08-01T09:47:03.568Z,18.45
2023-08-01T09:49:31.174Z,19.07
2023-08-01T09:51:59.154Z,19.61
2023-08-01T09:54:26.228Z,20.24
2023-08-01T09:56:55.188Z,20.48
2023-08-01T09:59:27.237Z,20.22
2023-08-01T10:01:56.072Z,20.37
2023-08-01T10:04:31.426Z,19.97
2023-08-01T10:07:07.850Z,19.44
2023-08-01T10:09:38.990Z,19.35
2023-08-01T10:12:07.078Z,18.99
2023-08-01T10:14:34.432Z,19.02
2023-08-01T10:17:04.535Z,19.27
2023-08-01T10:19:34.200Z,19.48
2023-08-01T10:22:01.685Z,19.84
2023-08-01T10:24:29.545Z,19.85
2023-08-01T10:26:56.321Z,20.09
2023-08-01T10:29:23.194Z,20.33
2023-08-01T10:31:54.406Z,20.06
2023-08-01T10:34:24.580Z,19.65
2023-08-01T10:36:58.993Z,19.28
2023-08-01T10:39:27.631Z,19.12
2023-08-01T10:42:06.332Z,19.40
2023-08-01T10:44:35.448Z,19.36
2023-08-01T10:47:05.559Z,19.39
2023-08-01T10:49:41.024Z,19.16
2023-08-01T10:52:27.954Z,19.28
2023-08-01T10:55:00.510Z,19.28
2023-08-01T10:57:31.928Z,19.66
2023-08-01T10:59:59.986Z,19.85
2023-08-01T11:02:28.608Z,20.00
2023-08-01T11:05:06.047Z,20.15
2023-08-01T11:07:34.145Z,20.52
2023-08-01T11:10:11.112Z,20.46
2023-08-01T11:12:38.768Z,20.52
2023-08-01T11:15:09.191Z,19.61
2023-08-01T11:17:44.229Z,19.02
2023-08-01T11:20:14.336Z,18.85
2023-08-01T11:23:03.249Z,18.46
2023-08-01T11:25:40.697Z,18.50
2023-08-01T11:28:12.805Z,18.38
2023-08-01T11:30:40.787Z,18.39
2023-08-01T11:33:19.191Z,18.33
2023-08-01T11:35:46.285Z,18.19
2023-08-01T11:38:13.076Z,18.23
2023-08-01T11:40:41.155Z,18.24
2023-08-01T11:43:09.294Z,18.14
2023-08-01T11:45:37.191Z,18.28
2023-08-01T11:48:04.591Z,17.98
2023-08-01T11:50:31.548Z,17.75
2023-08-01T11:52:58.446Z,17.63
2023-08-01T11:55:28.026Z,17.35
2023-08-01T11:57:56.289Z,17.28
2023-08-01T12:00:27.770Z,17.27
2023-08-01T12:03:15.163Z,17.18
2023-08-01T12:05:42.827Z,17.10
2023-08-01T12:08:13.796Z,17.16
2023-08-01T12:10:46.373Z,16.97
2023-08-01T12:13:23.827Z,17.00
2023-08-01T12:15:52.004Z,17.07
2023-08-01T12:20:57.065Z,16.95
2023-08-01T12:23:23.921Z,16.81
2023-08-01T12:25:50.885Z,16.59
2023-08-01T12:28:17.752Z,16.46
2023-08-01T12:30:45.436Z,16.36
2023-08-01T12:33:12.440Z,16.42
2023-08-01T12:35:42.881Z,16.46
2023-08-01T12:38:10.856Z,16.46
2023-08-01T12:40:37.787Z,16.55
2023-08-01T12:43:04.571Z,16.63
2023-08-01T12:45:31.373Z,16.77
2023-08-01T12:47:58.193Z,16.90
2023-08-01T12:50:25.135Z,17.01
2023-08-01T12:52:51.983Z,17.04
2023-08-01T12:55:18.976Z,17.04
2023-08-01T12:57:45.903Z,17.19
2023-08-01T13:00:13.039Z,17.33
2023-08-01T13:02:40.221Z,17.48
2023-08-01T13:05:07.313Z,17.51
2023-08-01T13:07:34.265Z,17.80
2023-08-01T13:10:02.122Z,17.94
2023-08-01T13:12:29.010Z,18.15
2023-08-01T13:15:04.009Z,18.39
2023-08-01T13:17:40.022Z,18.58
2023-08-01T13:20:07.609Z,18.54
2023-08-01T13:22:34.434Z,18.61
2023-08-01T13:25:01.483Z,18.49
2023-08-01T13:27:28.281Z,18.26
2023-08-01T13:29:55.365Z,18.47
2023-08-01T13:32:22.371Z,18.71
2023-08-01T13:34:49.336Z,18.84
2023-08-01T13:37:17.677Z,18.92
2023-08-01T13:39:47.122Z,19.00
2023-08-01T13:42:14.258Z,18.96
2023-08-01T13:44:47.686Z,18.97
2023-08-01T13:47:20.371Z,18.70
2023-08-01T13:49:47.310Z,18.41
2023-08-01T13:52:14.176Z,18.34
2023-08-01T13:54:41.480Z,18.69
2023-08-01T13:57:08.307Z,19.23
2023-08-01T13:59:35.132Z,19.25
2023-08-01T14:02:02.044Z,19.65
2023-08-01T14:04:28.927Z,20.61
2023-08-01T14:06:56.555Z,21.01
2023-08-01T14:09:23.457Z,21.47
2023-08-01T14:11:50.362Z,21.17
2023-08-01T14:14:18.395Z,21.49
2023-08-01T14:16:45.813Z,21.46
2023-08-01T14:19:14.661Z,20.88
2023-08-01T14:21:41.492Z,20.21
2023-08-01T14:24:08.253Z,19.93
2023-08-01T14:26:35.091Z,19.86
2023-08-01T14:29:01.882Z,19.93
2023-08-01T14:31:28.773Z,20.00
2023-08-01T14:33:55.625Z,20.02
2023-08-01T14:36:22.424Z,19.86
2023-08-01T14:38:56.935Z,19.74
2023-08-01T14:41:47.041Z,19.46
2023-08-01T14:44:12.085Z,19.40
2023-08-01T14:46:39.599Z,19.90
2023-08-01T14:49:06.583Z,19.98
2023-08-01T14:51:33.319Z,19.89
2023-08-01T14:54:00.105Z,20.83
2023-08-01T14:56:26.840Z,21.44
2023-08-01T14:58:55.117Z,21.05
2023-08-01T15:01:22.550Z,20.33
2023-08-01T15:03:49.431Z,20.00
2023-08-01T15:06:16.771Z,19.89
2023-08-01T15:08:44.071Z,19.77
2023-08-01T15:11:11.267Z,19.50
2023-08-01T15:13:38.210Z,19.33
2023-08-01T15:16:05.035Z,19.48
2023-08-01T15:18:31.883Z,19.78
2023-08-01T15:20:58.695Z,20.17
2023-08-01T15:23:25.521Z,20.21
2023-08-01T15:25:59.924Z,20.47
2023-08-01T15:28:27.384Z,20.85
2023-08-01T15:31:09.163Z,19.91
2023-08-01T15:33:38.036Z,19.47
2023-08-01T15:36:06.937Z,19.15
2023-08-01T15:38:35.226Z,19.00
2023-08-01T15:41:11.369Z,18.68
2023-08-01T15:43:40.197Z,18.37
2023-08-01T15:46:08.237Z,18.36
2023-08-01T15:48:36.333Z,18.72
2023-08-01T15:51:04.617Z,18.77
2023-08-01T15:53:35.666Z,19.32
2023-08-01T15:56:07.929Z,19.65
2023-08-01T15:58:35.587Z,19.71
2023-08-01T16:01:02.610Z,19.30
2023-08-01T16:03:30.004Z,18.90
2023-08-01T16:05:57.717Z,18.77
2023-08-01T16:08:24.773Z,18.99
2023-08-01T16:10:51.677Z,19.17
2023-08-01T16:13:19.609Z,19.20
2023-08-01T16:15:46.938Z,19.54
2023-08-01T16:18:13.877Z,19.53
2023-08-01T16:20:40.721Z,19.60
2023-08-01T16:23:07.601Z,19.16
2023-08-01T16:25:34.456Z,19.20
2023-08-01T16:28:01.361Z,18.98
2023-08-01T16:30:28.754Z,18.81
2023-08-01T16:32:56.176Z,18.54
2023-08-01T16:35:23.371Z,18.47
2023-08-01T16:37:50.331Z,18.51
2023-08-01T16:40:17.274Z,18.75
2023-08-01T16:42:44.970Z,18.88
2023-08-01T16:45:13.369Z,18.80
2023-08-01T16:47:43.558Z,18.58
2023-08-01T16:50:21.607Z,18.52
2023-08-01T16:52:49.388Z,18.47
2023-08-01T16:55:17.509Z,18.13
2023-08-01T16:57:44.969Z,18.09
2023-08-01T17:00:13.418Z,17.81
2023-08-01T17:02:40.836Z,17.40
2023-08-01T17:05:08.389Z,17.31
2023-08-01T17:07:35.597Z,17.36
2023-08-01T17:10:05.984Z,17.29
2023-08-01T17:12:34.916Z,17.24
2023-08-01T17:15:01.941Z,17.23
2023-08-01T17:17:29.505Z,17.27
2023-08-01T17:20:00.194Z,17.49
2023-08-01T17:22:28.182Z,17.90
2023-08-01T17:24:55.410Z,18.10
2023-08-01T17:27:22.673Z,18.07
2023-08-01T17:29:50.469Z,18.07
2023-08-01T17:32:18.749Z,18.05
2023-08-01T17:34:47.888Z,17.96
2023-08-01T17:37:15.482Z,17.81
2023-08-01T17:39:42.738Z,17.71
2023-08-01T17:42:09.907Z,17.78
2023-08-01T17:44:41.105Z,17.59
2023-08-01T17:47:09.188Z,17.45
2023-08-01T17:49:36.423Z,17.31
2023-08-01T17:52:04.896Z,17.29
2023-08-01T17:54:32.838Z,17.21
2023-08-01T17:57:00.309Z,17.17
2023-08-01T17:59:27.303Z,17.23
2023-08-01T18:01:54.870Z,17.30
2023-08-01T18:04:22.625Z,17.31
2023-08-01T18:06:50.498Z,17.35
2023-08-01T18:09:20.001Z,17.35
2023-08-01T18:11:49.524Z,17.37
2023-08-01T18:14:19.014Z,17.36
2023-08-01T18:16:47.288Z,17.29
2023-08-01T18:19:17.893Z,17.23
2023-08-01T18:21:45.053Z,17.27
2023-08-01T18:24:13.103Z,17.32
2023-08-01T18:26:40.863Z,17.21
2023-08-01T18:29:10.546Z,17.19
2023-08-01T18:31:37.763Z,17.30
2023-08-01T18:34:05.075Z,17.35
2023-08-01T18:36:32.505Z,17.25
2023-08-01T18:39:01.656Z,17.34
2023-08-01T18:41:28.585Z,17.19
2023-08-01T18:43:55.564Z,17.01
2023-08-01T18:46:25.572Z,17.01
2023-08-01T18:48:58.673Z,16.94
2023-08-01T18:51:25.760Z,16.77
2023-08-01T18:53:52.920Z,16.77
2023-08-01T18:56:21.061Z,16.85
2023-08-01T18:58:52.283Z,16.82
2023-08-01T19:01:26.470Z,16.91
2023-08-01T19:03:57.526Z,16.85
2023-08-01T19:06:27.498Z,16.86
2023-08-01T19:09:18.258Z,16.81
2023-08-01T19:11:49.067Z,16.77
2023-08-01T19:14:30.111Z,16.80
2023-08-01T19:17:01.629Z,16.71
2023-08-01T19:19:32.879Z,16.65
2023-08-01T19:22:08.034Z,16.68
2023-08-01T19:24:45.239Z,16.65
2023-08-01T19:27:14.676Z,16.57
2023-08-01T19:29:43.518Z,16.60
2023-08-01T19:32:18.643Z,16.58
2023-08-01T19:37:29.103Z,16.51
2023-08-01T19:39:55.773Z,16.53
2023-08-01T19:42:24.566Z,16.57
2023-08-01T19:44:51.224Z,16.62
2023-08-01T19:47:17.868Z,16.62
2023-08-01T19:49:44.554Z,16.71
2023-08-01T19:52:11.278Z,16.59
2023-08-01T19:54:38.125Z,16.62
2023-08-01T19:57:05.075Z,16.61
2023-08-01T19:59:31.765Z,16.58
2023-08-01T20:01:58.716Z,16.55
2023-08-01T20:04:25.609Z,16.54
2023-08-01T20:06:52.442Z,16.60
2023-08-01T20:09:19.524Z,16.54
2023-08-01T20:11:46.249Z,16.53
2023-08-01T20:14:13.008Z,16.47
2023-08-01T20:16:40.060Z,16.50
2023-08-01T20:19:07.026Z,16.48
2023-08-01T20:21:33.703Z,16.46
2023-08-01T20:24:00.614Z,16.45
2023-08-01T20:26:27.290Z,16.47
2023-08-01T20:28:53.960Z,16.46
2023-08-01T20:31:20.728Z,16.51
2023-08-01T20:33:47.442Z,16.45
2023-08-01T20:36:14.114Z,16.57
2023-08-01T20:38:40.827Z,16.52
2023-08-01T20:41:17.431Z,16.44
2023-08-01T20:43:44.467Z,16.51
2023-08-01T20:46:11.286Z,16.43
2023-08-01T20:48:38.041Z,16.48
2023-08-01T20:51:04.700Z,16.50
2023-08-01T20:53:31.461Z,16.46
2023-08-01T20:55:59.808Z,16.47
2023-08-01T20:58:26.491Z,16.50
2023-08-01T21:01:00.442Z,16.48
2023-08-01T21:03:27.848Z,16.49
2023-08-01T21:05:54.542Z,16.49
2023-08-01T21:08:21.309Z,16.41
2023-08-01T21:10:48.013Z,16.39
2023-08-01T21:13:14.943Z,16.38
2023-08-01T21:15:41.829Z,16.39
2023-08-01T21:18:08.739Z,16.42
2023-08-01T21:20:35.461Z,16.36
2023-08-01T21:23:02.180Z,16.37
2023-08-01T21:25:28.986Z,16.36
2023-08-01T21:27:55.663Z,16.36
2023-08-01T21:30:22.422Z,16.35
2023-08-01T21:32:49.244Z,16.36
2023-08-01T21:35:17.697Z,16.33
2023-08-01T21:37:44.431Z,16.36
2023-08-01T21:40:11.622Z,16.35
2023-08-01T21:42:38.491Z,16.33
2023-08-01T21:45:05.992Z,16.31
2023-08-01T21:47:33.064Z,16.34
2023-08-01T21:50:01.000Z,16.36
2023-08-01T21:52:27.830Z,16.42
2023-08-01T21:54:54.531Z,16.37
2023-08-01T21:57:23.902Z,16.35
2023-08-01T21:59:50.622Z,16.41
2023-08-01T22:02:17.358Z,16.35
2023-08-01T22:04:44.013Z,16.31
2023-08-01T22:07:10.841Z,16.36
2023-08-01T22:09:37.736Z,16.36
2023-08-01T22:12:04.738Z,16.32
2023-08-01T22:14:31.463Z,16.23
2023-08-01T22:16:58.119Z,16.22
2023-08-01T22:19:25.135Z,16.21
2023-08-01T22:21:52.319Z,16.26
2023-08-01T22:24:19.038Z,16.25
2023-08-01T22:26:45.736Z,16.23
2023-08-01T22:29:12.480Z,16.16
2023-08-01T22:31:39.122Z,16.17
2023-08-01T22:34:06.457Z,16.17
2023-08-01T22:36:33.117Z,16.17
2023-08-01T22:39:00.143Z,16.15
2023-08-01T22:41:26.855Z,16.18
2023-08-01T22:43:58.471Z,16.12
2023-08-01T22:46:25.495Z,16.04
2023-08-01T22:48:52.469Z,16.02
2023-08-01T22:51:20.037Z,15.93
2023-08-01T22:53:49.280Z,15.80
2023-08-01T22:56:17.712Z,15.77
2023-08-01T22:58:44.581Z,15.78
2023-08-01T23:01:13.809Z,15.77
2023-08-01T23:03:41.450Z,15.73
2023-08-01T23:06:08.201Z,15.62
2023-08-01T23:08:36.193Z,15.69
2023-08-01T23:11:03.230Z,15.72
2023-08-01T23:13:30.132Z,15.64
2023-08-01T23:15:56.796Z,15.68
2023-08-01T23:18:23.866Z,15.74
2023-08-01T23:20:51.089Z,15.65
2023-08-01T23:23:17.728Z,15.64
2023-08-01T23:25:44.509Z,15.68
2023-08-01T23:28:11.188Z,15.61
2023-08-01T23:30:38.033Z,15.55
2023-08-01T23:33:05.091Z,15.54
2023-08-01T23:35:31.920Z,15.48
2023-08-01T23:37:59.673Z,15.50
2023-08-01T23:40:28.496Z,15.55
2023-08-01T23:42:55.198Z,15.63
2023-08-01T23:45:21.884Z,15.69
2023-08-01T23:47:48.676Z,15.55
2023-08-01T23:50:15.467Z,15.58
2023-08-01T23:52:44.241Z,15.60
2023-08-01T23:55:11.303Z,15.58
2023-08-01T23:57:38.106Z,15.49
